Time;durP1;ratioP1;P1;durP2;ratioP2;P2;SDS_P1;SDS_P2;PMS_P1;PMS_P2;Temp;Humidity;BMP_temperature;BMP_pressure;BME280_temperature;BME280_humidity;BME280_pressure;Samples;Min_cycle;Max_cycle;Signal;HPM_P1;HPM_P2
2023/05/16 00:00:25;;;;;;;;;;;13.00;64.80;;;8.54;100.00;95205.03;5012082;28;19917;-58
2023/05/16 00:02:51;;;;;;;;;;;13.00;64.70;;;8.56;100.00;95191.53;5011282;28;20348;-57
2023/05/16 00:05:17;;;;;;;;;;;13.10;64.70;;;8.58;100.00;95189.38;5011386;28;19936;-57
2023/05/16 00:07:46;;;;;;;;;;;13.10;64.70;;;8.60;100.00;95195.25;5012174;28;20383;-58
2023/05/16 00:10:12;;;;;;;;;;;13.10;64.70;;;8.62;100.00;95192.31;5006141;28;19910;-58
2023/05/16 00:12:39;;;;;;;;;;;13.10;64.70;;;8.65;100.00;95195.28;5009514;28;19916;-56
2023/05/16 00:15:07;;;;;;;;;;;13.10;64.70;;;8.69;100.00;95195.53;5012310;28;19913;-56
2023/05/16 00:17:34;;;;;;;;;;;13.20;64.90;;;8.71;100.00;95191.56;5002304;28;19964;-57
2023/05/16 00:20:01;;;;;;;;;;;13.20;64.90;;;8.72;100.00;95187.06;5012412;28;19913;-58
2023/05/16 00:22:27;;;;;;;;;;;13.20;64.90;;;8.66;100.00;95190.75;5008077;28;19916;-58
2023/05/16 00:24:53;;;;;;;;;;;13.30;64.90;;;8.70;100.00;95189.16;5012044;28;19909;-58
2023/05/16 00:27:18;;;;;;;;;;;13.20;64.90;;;8.75;100.00;95192.63;5011901;28;20043;-57
2023/05/16 00:29:44;;;;;;;;;;;13.20;64.90;;;8.79;100.00;95187.59;5010819;28;19913;-57
2023/05/16 00:32:10;;;;;;;;;;;13.30;65.00;;;8.81;100.00;95185.47;5027390;28;20360;-52
2023/05/16 00:34:36;;;;;;;;;;;13.30;65.00;;;8.82;100.00;95181.75;5011022;28;20003;-51
2023/05/16 00:37:02;;;;;;;;;;;13.30;65.00;;;8.85;100.00;95186.53;5012094;28;20291;-52
2023/05/16 00:39:27;;;;;;;;;;;13.30;65.00;;;8.85;100.00;95183.09;5011882;28;19909;-51
2023/05/16 00:41:53;;;;;;;;;;;13.30;65.00;;;8.87;100.00;95179.13;5011026;28;19917;-56
2023/05/16 00:44:19;;;;;;;;;;;13.40;65.80;;;8.88;100.00;95175.41;5012261;28;20004;-56
2023/05/16 00:46:45;;;;;;;;;;;13.40;65.00;;;8.87;100.00;95176.47;5010759;28;19913;-58
2023/05/16 00:49:11;;;;;;;;;;;13.40;65.00;;;8.88;100.00;95178.06;5012171;28;19936;-56
2023/05/16 00:51:38;;;;;;;;;;;13.40;65.10;;;8.89;100.00;95173.53;5007899;28;20398;-57
2023/05/16 00:54:05;;;;;;;;;;;13.40;65.10;;;8.92;100.00;95176.47;5026923;28;19909;-58
2023/05/16 00:56:32;;;;;;;;;;;13.40;65.10;;;8.97;100.00;95176.47;5011554;28;19913;-55
2023/05/16 00:58:58;;;;;;;;;;;13.40;65.20;;;8.99;100.00;95166.38;5010766;28;19909;-57
2023/05/16 01:01:26;;;;;;;;;;;13.50;65.30;;;9.00;100.00;95164.53;5011538;28;19909;-52
2023/05/16 01:03:53;;;;;;;;;;;13.50;65.30;;;8.97;100.00;95163.19;5025984;28;19913;-56
2023/05/16 01:06:19;;;;;;;;;;;13.50;65.30;;;8.96;100.00;95169.56;5011471;28;20418;-53
2023/05/16 01:08:45;;;;;;;;;;;13.50;66.00;;;8.99;100.00;95168.22;5011788;28;20325;-52
2023/05/16 01:11:26;;;;;;;;;;;13.50;65.20;;;9.01;100.00;95161.59;5009974;28;19909;-53
2023/05/16 01:14:18;;;;;;;;;;;13.60;65.30;;;9.03;100.00;95156.03;5027809;28;19909;-53
2023/05/16 01:16:55;;;;;;;;;;;13.50;65.30;;;9.03;100.00;95153.38;5028119;28;19936;-55
2023/05/16 01:20:11;;;;;;;;;;;13.60;65.30;;;9.04;100.00;95154.97;5014942;28;19932;-52
2023/05/16 01:22:46;;;;;;;;;;;13.60;65.30;;;9.08;100.00;95157.88;5014205;28;19909;-57
2023/05/16 01:25:38;;;;;;;;;;;13.60;65.30;;;9.10;100.00;95155.75;5009244;28;19909;-57
2023/05/16 01:28:06;;;;;;;;;;;13.60;65.40;;;9.09;100.00;95154.97;5014167;28;19909;-53
2023/05/16 01:30:37;;;;;;;;;;;13.60;66.20;;;9.10;100.00;95153.91;5013856;28;19909;-53
2023/05/16 01:33:03;;;;;;;;;;;13.70;65.50;;;9.10;100.00;95159.22;5014946;28;19921;-56
2023/05/16 01:35:30;;;;;;;;;;;13.60;65.40;;;9.10;100.00;95156.56;5003762;28;20307;-57
2023/05/16 01:38:29;;;;;;;;;;;13.60;65.40;;;9.12;100.00;95165.06;5030282;28;19916;-58
2023/05/16 01:41:15;;;;;;;;;;;13.70;65.60;;;9.15;100.00;95155.75;5006425;28;20341;-55
2023/05/16 01:43:50;;;;;;;;;;;13.60;65.50;;;9.16;100.00;95157.38;5014666;28;19909;-57
2023/05/16 01:46:25;;;;;;;;;;;13.70;65.60;;;9.15;100.00;95164.53;5013731;28;20364;-56
2023/05/16 01:49:35;;;;;;;;;;;13.70;65.60;;;9.18;100.00;95164.00;5014579;28;19909;-57
2023/05/16 01:52:13;;;;;;;;;;;13.70;65.60;;;9.19;100.00;95154.97;5013696;28;19996;-54
2023/05/16 01:54:44;;;;;;;;;;;13.70;65.70;;;9.21;100.00;95155.50;5014646;28;19936;-54
2023/05/16 01:57:12;;;;;;;;;;;13.70;65.70;;;9.23;100.00;95150.72;5029730;28;20010;-54
2023/05/16 01:59:41;;;;;;;;;;;13.80;66.60;;;9.26;100.00;95154.69;5028629;28;19915;-56
2023/05/16 02:02:07;;;;;;;;;;;13.80;65.80;;;9.27;100.00;95151.78;5029559;28;20391;-53
2023/05/16 02:04:33;;;;;;;;;;;13.80;65.80;;;9.29;100.00;95154.16;5013460;28;19913;-57
2023/05/16 02:07:00;;;;;;;;;;;13.80;65.80;;;9.31;100.00;95153.88;5014412;28;19908;-58
2023/05/16 02:09:26;;;;;;;;;;;13.80;65.80;;;9.32;100.00;95155.50;5029420;28;19996;-58
2023/05/16 02:11:52;;;;;;;;;;;13.80;65.80;;;9.32;100.00;95150.19;5013157;28;19913;-56
2023/05/16 02:14:18;;;;;;;;;;;13.90;65.90;;;9.32;100.00;95148.31;5013595;28;19909;-52
2023/05/16 02:16:44;;;;;;;;;;;13.90;65.90;;;9.34;100.00;95148.03;5013172;28;19955;-54
2023/05/16 02:19:10;;;;;;;;;;;13.90;65.80;;;9.35;100.00;95150.44;5014266;28;19994;-53
2023/05/16 02:21:35;;;;;;;;;;;13.90;65.80;;;9.37;100.00;95150.16;5013134;28;20398;-52
2023/05/16 02:24:01;;;;;;;;;;;13.90;65.90;;;9.40;100.00;95144.31;5013703;28;19909;-58
2023/05/16 02:26:27;;;;;;;;;;;13.90;65.90;;;9.42;100.00;95155.50;5013947;28;19909;-58
2023/05/16 02:28:53;;;;;;;;;;;13.90;65.90;;;9.42;100.00;95144.84;5012823;28;19920;-54
2023/05/16 02:31:30;;;;;;;;;;;13.90;65.90;;;9.42;100.00;95145.66;5013777;28;19909;-55
2023/05/16 02:33:57;;;;;;;;;;;14.00;65.90;;;9.42;100.00;95144.84;5012405;28;20009;-53
2023/05/16 02:36:23;;;;;;;;;;;14.00;66.00;;;9.43;100.00;95144.59;5013497;28;19936;-56
2023/05/16 02:38:49;;;;;;;;;;;14.00;65.90;;;9.43;100.00;95138.47;5013608;28;20372;-55
2023/05/16 02:41:15;;;;;;;;;;;14.00;66.00;;;9.46;100.00;95144.06;5012882;28;19916;-54
2023/05/16 02:43:42;;;;;;;;;;;14.00;65.90;;;9.44;100.00;95135.56;5013604;28;19963;-58
2023/05/16 02:46:32;;;;;;;;;;;14.00;66.00;;;9.47;100.00;95132.34;5012385;28;20296;-58
2023/05/16 02:48:59;;;;;;;;;;;14.00;66.00;;;9.45;100.00;95141.66;5013446;28;19959;-58
2023/05/16 02:51:27;;;;;;;;;;;14.00;66.00;;;9.45;100.00;95141.66;5007570;28;19909;-58
2023/05/16 02:53:55;;;;;;;;;;;14.00;66.10;;;9.44;100.00;95140.06;5012189;28;20383;-58
2023/05/16 02:56:22;;;;;;;;;;;14.00;66.00;;;9.42;100.00;95131.56;5013508;28;19913;-58
2023/05/16 02:58:49;;;;;;;;;;;14.10;66.10;;;9.43;100.00;95130.50;5010510;28;19920;-51
2023/05/16 03:01:16;;;;;;;;;;;14.00;66.80;;;9.43;100.00;95136.63;5011908;28;19959;-53
2023/05/16 03:03:42;;;;;;;;;;;14.10;66.10;;;9.44;100.00;95135.56;5012076;28;20008;-55
2023/05/16 03:06:07;;;;;;;;;;;14.10;66.10;;;9.45;100.00;95137.13;5013125;28;20004;-59
2023/05/16 03:08:34;;;;;;;;;;;14.00;66.00;;;9.47;100.00;95131.56;5013228;28;19958;-58
2023/05/16 03:11:00;;;;;;;;;;;14.10;66.10;;;9.47;100.00;95128.91;5012370;28;19948;-58
2023/05/16 03:13:27;;;;;;;;;;;14.10;66.10;;;9.48;100.00;95130.50;5012968;28;19916;-57
2023/05/16 03:15:52;;;;;;;;;;;14.10;66.10;;;9.48;100.00;95123.31;5011966;28;19956;-56
2023/05/16 03:18:18;;;;;;;;;;;14.10;66.10;;;9.48;100.00;95125.16;5012763;28;19936;-58
2023/05/16 03:20:44;;;;;;;;;;;14.10;66.10;;;9.47;100.00;95118.28;5012865;28;20005;-57
2023/05/16 03:23:10;;;;;;;;;;;14.10;66.20;;;9.47;100.00;95112.97;5011560;28;20384;-57
2023/05/16 03:25:36;;;;;;;;;;;14.10;66.20;;;9.46;100.00;95114.81;5013003;28;19916;-58
2023/05/16 03:28:09;;;;;;;;;;;14.10;66.20;;;9.45;100.00;95115.88;5025515;28;19916;-55
2023/05/16 03:30:35;;;;;;;;;;;14.10;66.20;;;9.41;100.00;95114.81;5012496;28;19909;-57
2023/05/16 03:33:01;;;;;;;;;;;14.00;66.20;;;9.44;100.00;95121.47;5012373;28;20429;-58
2023/05/16 03:35:27;;;;;;;;;;;14.00;66.20;;;9.43;100.00;95117.19;5011319;28;19913;-55
2023/05/16 03:37:53;;;;;;;;;;;14.00;66.20;;;9.43;100.00;95125.16;5012032;28;19936;-53
2023/05/16 03:40:20;;;;;;;;;;;14.00;66.20;;;9.39;100.00;95126.78;5011395;28;19916;-55
2023/05/16 03:42:45;;;;;;;;;;;14.00;66.20;;;9.38;100.00;95126.00;5012416;28;19909;-56
2023/05/16 03:45:11;;;;;;;;;;;14.00;66.30;;;9.39;100.00;95121.47;5012635;28;19964;-54
2023/05/16 03:47:37;;;;;;;;;;;14.00;66.30;;;9.41;100.00;95122.78;5011524;28;19925;-53
2023/05/16 03:50:05;;;;;;;;;;;14.00;66.40;;;9.40;100.00;95120.38;5012538;28;19909;-51
2023/05/16 03:52:30;;;;;;;;;;;14.00;66.40;;;9.40;100.00;95117.72;5004603;28;19909;-57
2023/05/16 03:54:56;;;;;;;;;;;14.00;66.50;;;9.39;100.00;95119.59;5012518;28;19914;-56
2023/05/16 03:57:24;;;;;;;;;;;14.00;66.40;;;9.40;100.00;95117.72;5011654;28;26606;-55
2023/05/16 03:59:49;;;;;;;;;;;14.00;66.40;;;9.39;100.00;95127.56;5011339;28;20383;-58
2023/05/16 04:02:15;;;;;;;;;;;14.00;66.40;;;9.38;100.00;95120.66;5011788;28;19909;-56
2023/05/16 04:04:41;;;;;;;;;;;14.00;66.40;;;9.38;100.00;95131.31;5011230;28;19909;-56
2023/05/16 04:07:07;;;;;;;;;;;14.00;66.40;;;9.38;100.00;95128.66;5012369;28;19948;-57
2023/05/16 04:09:32;;;;;;;;;;;14.00;66.40;;;9.37;100.00;95129.72;5012589;28;19920;-52
2023/05/16 04:12:00;;;;;;;;;;;14.00;66.40;;;9.37;100.00;95131.56;5007291;28;19909;-53
2023/05/16 04:14:26;;;;;;;;;;;14.00;66.50;;;9.37;100.00;95137.69;5012006;28;19916;-51
2023/05/16 04:16:52;;;;;;;;;;;14.10;66.40;;;9.39;100.00;95142.72;5011406;28;19909;-56
2023/05/16 04:19:18;;;;;;;;;;;14.10;66.40;;;9.40;100.00;95139.00;5012335;28;20275;-51
2023/05/16 04:21:44;;;;;;;;;;;14.10;66.40;;;9.41;100.00;95146.72;5010883;28;19909;-52
2023/05/16 04:24:09;;;;;;;;;;;14.10;67.20;;;9.42;100.00;95145.66;5012354;28;19970;-53
2023/05/16 04:26:36;;;;;;;;;;;14.10;66.40;;;9.46;100.00;95141.41;5012666;28;20344;-55
2023/05/16 04:29:02;;;;;;;;;;;14.10;66.40;;;9.49;100.00;95137.41;5010328;28;19931;-56
2023/05/16 04:31:28;;;;;;;;;;;14.20;66.50;;;9.52;100.00;95146.69;5012126;28;20304;-56
2023/05/16 04:33:54;;;;;;;;;;;14.20;66.50;;;9.50;100.00;95137.13;5010913;28;19956;-55
2023/05/16 04:36:21;;;;;;;;;;;14.20;66.50;;;9.52;100.00;95136.06;5011974;28;20414;-57
2023/05/16 04:38:47;;;;;;;;;;;14.20;66.40;;;9.52;100.00;95134.19;5012451;28;19937;-52
2023/05/16 04:41:13;;;;;;;;;;;14.20;66.40;;;9.60;100.00;95138.19;5010711;28;19996;-57
2023/05/16 04:43:39;;;;;;;;;;;14.30;66.50;;;9.63;100.00;95127.81;5011698;28;19991;-54
2023/05/16 04:46:08;;;;;;;;;;;14.30;66.50;;;9.64;100.00;95133.91;5011174;28;19952;-55
2023/05/16 04:48:34;;;;;;;;;;;14.40;66.50;;;9.67;100.00;95128.84;5014064;28;20268;-56
2023/05/16 04:51:00;;;;;;;;;;;14.40;66.50;;;9.69;100.00;95137.38;5015822;28;19915;-54
2023/05/16 04:53:26;;;;;;;;;;;14.50;66.50;;;9.67;100.00;95134.19;5014304;28;20414;-55
2023/05/16 04:55:52;;;;;;;;;;;14.50;66.30;;;9.68;100.00;95135.78;5015507;28;19913;-52
2023/05/16 04:58:18;;;;;;;;;;;14.60;66.20;;;9.66;100.00;95135.25;5008638;28;20350;-51
2023/05/16 05:00:43;;;;;;;;;;;14.60;66.10;;;9.71;100.00;95140.56;5012260;28;19988;-54
2023/05/16 05:03:09;;;;;;;;;;;14.60;66.00;;;9.76;100.00;95139.75;5015551;28;20260;-51
2023/05/16 05:05:35;;;;;;;;;;;14.70;66.10;;;9.80;100.00;95135.47;5014508;28;19915;-53
2023/05/16 05:08:01;;;;;;;;;;;14.70;66.10;;;9.85;100.00;95140.78;5015622;28;19909;-54
2023/05/16 05:10:27;;;;;;;;;;;14.70;66.10;;;9.88;100.00;95136.81;5010550;28;19909;-54
2023/05/16 05:12:53;;;;;;;;;;;14.80;66.10;;;9.84;100.00;95139.22;5015206;28;19995;-53
2023/05/16 05:15:19;;;;;;;;;;;14.80;66.10;;;9.81;100.00;95133.59;5015272;28;19948;-56
2023/05/16 05:17:44;;;;;;;;;;;14.80;66.00;;;9.88;100.00;95145.56;5014028;28;19940;-51
2023/05/16 05:20:11;;;;;;;;;;;14.80;66.00;;;9.91;100.00;95144.25;5015122;28;19916;-52
2023/05/16 05:22:37;;;;;;;;;;;14.90;66.00;;;9.92;100.00;95141.28;5009365;28;19917;-52
2023/05/16 05:25:04;;;;;;;;;;;14.90;66.00;;;9.98;100.00;95143.94;5014050;28;20378;-51
2023/05/16 05:27:30;;;;;;;;;;;14.90;66.00;;;10.00;100.00;95152.44;5015055;28;19913;-57
2023/05/16 05:29:56;;;;;;;;;;;15.00;66.10;;;10.00;100.00;95149.78;5011178;28;19916;-54
2023/05/16 05:32:21;;;;;;;;;;;15.10;66.00;;;10.01;100.00;95148.72;5014954;28;19909;-53
2023/05/16 05:34:48;;;;;;;;;;;15.00;66.60;;;10.06;100.00;95149.53;5012357;22;19929;-48
2023/05/16 05:37:13;;;;;;;;;;;15.10;65.90;;;10.03;100.00;95147.41;4992687;28;19913;-47
2023/05/16 05:39:39;;;;;;;;;;;15.10;65.90;;;10.09;100.00;95150.81;4992171;28;20318;-46
2023/05/16 05:42:05;;;;;;;;;;;15.10;65.90;;;10.08;100.00;95144.69;4993035;28;20338;-47
2023/05/16 05:44:32;;;;;;;;;;;15.10;65.80;;;10.08;100.00;95154.56;4968238;28;20000;-47
2023/05/16 05:46:58;;;;;;;;;;;15.10;65.70;;;10.11;100.00;95149.47;4970559;28;19910;-46
2023/05/16 05:49:25;;;;;;;;;;;15.10;65.70;;;10.15;100.00;95144.41;4962353;28;20339;-50
2023/05/16 05:51:51;;;;;;;;;;;15.10;65.70;;;10.15;100.00;95147.88;4988232;28;19917;-46
2023/05/16 05:54:18;;;;;;;;;;;15.10;65.70;;;10.20;100.00;95150.50;4972718;28;19917;-48
2023/05/16 05:56:44;;;;;;;;;;;15.10;65.70;;;10.29;100.00;95161.44;4986751;28;19922;-49
2023/05/16 05:59:10;;;;;;;;;;;15.10;65.70;;;10.27;100.00;95157.44;4968374;28;19909;-48
2023/05/16 06:01:37;;;;;;;;;;;15.20;65.70;;;10.30;100.00;95159.56;4963878;28;19921;-46
2023/05/16 06:04:03;;;;;;;;;;;15.20;65.60;;;10.37;100.00;95150.22;4961824;28;20396;-46
2023/05/16 06:06:30;;;;;;;;;;;15.20;65.60;;;10.40;100.00;95159.50;4970534;28;19916;-48
2023/05/16 06:08:55;;;;;;;;;;;15.30;65.40;;;10.45;100.00;95161.38;4971290;28;19910;-49
2023/05/16 06:11:21;;;;;;;;;;;15.40;65.40;;;10.45;100.00;95162.16;4972085;28;19936;-46
2023/05/16 06:13:47;;;;;;;;;;;15.40;65.30;;;10.51;100.00;95163.72;4966050;28;19914;-49
2023/05/16 06:16:13;;;;;;;;;;;15.50;65.30;;;10.56;100.00;95158.38;4967849;28;19925;-46
2023/05/16 06:18:39;;;;;;;;;;;15.60;65.20;;;10.59;100.00;95167.69;4955209;28;19910;-47
2023/05/16 06:21:05;;;;;;;;;;;15.60;65.10;;;10.65;100.00;95171.91;4954915;28;20262;-46
2023/05/16 06:23:33;;;;;;;;;;;15.70;65.00;;;10.69;100.00;95169.53;4961026;28;19917;-46
2023/05/16 06:25:59;;;;;;;;;;;15.70;65.00;;;10.72;100.00;95168.94;4971719;28;19917;-46
2023/05/16 06:28:24;;;;;;;;;;;15.80;64.90;;;10.78;100.00;95166.00;4970938;28;19909;-53
2023/05/16 06:30:50;;;;;;;;;;;15.80;64.70;;;10.80;100.00;95171.81;4985499;28;19917;-46
2023/05/16 06:33:17;;;;;;;;;;;15.90;64.70;;;10.83;100.00;95175.81;4954841;28;20076;-46
2023/05/16 06:35:45;;;;;;;;;;;15.90;64.60;;;10.87;100.00;95172.34;4960025;28;20281;-48
2023/05/16 06:38:10;;;;;;;;;;;16.00;64.50;;;10.86;100.00;95172.59;4954735;28;19910;-46
2023/05/16 06:40:36;;;;;;;;;;;15.90;64.40;;;10.92;100.00;95178.69;4957662;28;20281;-47
2023/05/16 06:43:02;;;;;;;;;;;16.00;64.40;;;10.97;100.00;95170.66;4955154;28;19910;-46
2023/05/16 06:45:28;;;;;;;;;;;16.00;64.50;;;10.98;99.72;95173.06;4953485;28;19917;-46
2023/05/16 06:47:55;;;;;;;;;;;16.10;64.40;;;11.00;100.00;95173.59;4961854;28;19918;-48
2023/05/16 06:50:21;;;;;;;;;;;16.10;64.30;;;11.09;99.91;95168.44;4954096;28;19910;-47
2023/05/16 06:52:47;;;;;;;;;;;16.20;64.20;;;11.04;99.26;95166.63;4962273;28;19915;-49
2023/05/16 06:55:13;;;;;;;;;;;16.30;64.00;;;11.11;98.73;95172.44;4956622;28;19920;-48
2023/05/16 06:57:39;;;;;;;;;;;16.50;63.90;;;11.24;98.48;95175.53;4953952;28;19910;-49
2023/05/16 07:00:07;;;;;;;;;;;16.60;63.70;;;11.29;98.19;95178.97;4967068;28;20399;-47
2023/05/16 07:02:33;;;;;;;;;;;16.70;63.50;;;11.37;97.74;95182.09;4962809;28;19918;-48
2023/05/16 07:04:58;;;;;;;;;;;16.80;63.30;;;11.51;96.53;95175.88;4958891;28;19961;-47
2023/05/16 07:07:24;;;;;;;;;;;17.10;63.20;;;11.68;96.38;95182.66;4953684;28;19910;-46
2023/05/16 07:09:50;;;;;;;;;;;17.30;62.90;;;11.91;93.91;95175.78;4966241;28;19910;-46
2023/05/16 07:12:17;;;;;;;;;;;17.60;62.60;;;12.12;93.76;95177.16;4962018;28;19914;-46
2023/05/16 07:14:42;;;;;;;;;;;17.90;62.40;;;12.24;91.46;95179.44;4953366;28;19910;-47
2023/05/16 07:17:10;;;;;;;;;;;18.00;62.10;;;12.26;89.61;95175.41;4954851;28;19917;-51
2023/05/16 07:19:35;;;;;;;;;;;18.20;62.60;;;12.35;90.06;95180.13;4953696;28;19988;-49
2023/05/16 07:22:01;;;;;;;;;;;18.30;61.60;;;12.32;88.86;95181.50;4955802;28;19920;-49
2023/05/16 07:24:27;;;;;;;;;;;18.40;61.30;;;12.46;89.55;95179.72;4955494;28;19914;-49
2023/05/16 07:26:53;;;;;;;;;;;18.50;61.10;;;12.69;90.21;95188.78;4953674;28;20000;-49
2023/05/16 07:29:18;;;;;;;;;;;18.60;61.00;;;12.70;88.98;95185.03;4962612;28;20372;-47
2023/05/16 07:31:44;;;;;;;;;;;18.70;60.70;;;12.72;89.38;95180.22;4975698;28;19914;-47
2023/05/16 07:34:10;;;;;;;;;;;18.90;60.40;;;12.84;89.06;95181.66;4952573;28;20352;-49
2023/05/16 07:36:37;;;;;;;;;;;19.00;60.10;;;12.95;88.39;95181.22;4967722;28;19914;-47
2023/05/16 07:39:03;;;;;;;;;;;19.20;59.80;;;12.97;86.92;95183.59;4953627;28;19989;-50
2023/05/16 07:41:30;;;;;;;;;;;19.40;59.60;;;13.03;86.89;95182.44;4964475;28;20345;-47
2023/05/16 07:43:58;;;;;;;;;;;19.60;59.20;;;13.21;85.03;95183.53;4953284;28;19910;-47
2023/05/16 07:46:24;;;;;;;;;;;19.80;59.00;;;13.35;84.45;95184.41;4957979;28;20249;-47
2023/05/16 07:48:50;;;;;;;;;;;20.00;58.90;;;13.44;82.69;95179.19;4970506;28;19960;-49
2023/05/16 07:51:16;;;;;;;;;;;20.20;58.50;;;13.49;83.52;95183.66;4968660;28;19918;-48
2023/05/16 07:53:41;;;;;;;;;;;20.30;58.20;;;13.68;83.73;95179.06;4986075;28;19920;-47
2023/05/16 07:56:08;;;;;;;;;;;20.50;58.20;;;13.57;81.73;95178.47;4987145;28;20331;-47
2023/05/16 07:58:33;;;;;;;;;;;20.50;57.90;;;13.64;82.65;95178.06;4968428;28;19909;-47
2023/05/16 08:00:59;;;;;;;;;;;20.40;57.70;;;13.76;83.62;95186.44;4968518;28;19957;-47
2023/05/16 08:03:25;;;;;;;;;;;20.40;57.80;;;13.77;81.09;95184.53;4960019;28;19921;-47
2023/05/16 08:05:51;;;;;;;;;;;20.40;58.40;;;13.84;80.47;95184.94;4966779;28;19914;-47
2023/05/16 08:08:18;;;;;;;;;;;20.40;57.70;;;13.84;80.75;95185.75;4969126;28;19914;-48
2023/05/16 08:10:44;;;;;;;;;;;20.50;57.70;;;13.77;80.93;95184.53;4966769;28;19909;-46
2023/05/16 08:13:09;;;;;;;;;;;20.50;58.00;;;13.81;81.39;95190.91;4968896;28;19972;-47
2023/05/16 08:15:35;;;;;;;;;;;20.50;57.20;;;13.83;80.05;95181.47;4955444;28;20428;-47
2023/05/16 08:18:01;;;;;;;;;;;20.50;57.10;;;13.76;80.25;95178.41;4967409;28;19910;-47
2023/05/16 08:20:27;;;;;;;;;;;20.60;57.00;;;13.96;80.37;95181.81;4958403;28;19920;-47
2023/05/16 08:22:54;;;;;;;;;;;20.60;56.90;;;13.93;78.87;95188.53;4969772;28;19925;-48
2023/05/16 08:25:20;;;;;;;;;;;20.60;56.80;;;13.96;79.99;95187.16;4973211;28;20413;-48
2023/05/16 08:27:48;;;;;;;;;;;20.50;56.80;;;13.99;80.87;95190.03;4969544;28;19910;-47
2023/05/16 08:30:14;;;;;;;;;;;20.40;56.90;;;13.87;80.14;95184.38;4969834;28;20008;-48
2023/05/16 08:32:40;;;;;;;;;;;20.30;57.00;;;13.74;80.01;95188.59;4972876;28;19918;-50
2023/05/16 08:35:07;;;;;;;;;;;20.10;56.90;;;13.80;80.39;95194.66;4968138;28;19929;-47
2023/05/16 08:37:33;;;;;;;;;;;19.90;57.10;;;13.85;82.11;95191.88;4972487;28;20343;-48
2023/05/16 08:39:59;;;;;;;;;;;19.70;57.30;;;13.94;80.94;95195.47;4972252;28;20418;-47
2023/05/16 08:42:26;;;;;;;;;;;19.60;57.40;;;14.00;80.87;95196.19;4973086;28;19909;-47
2023/05/16 08:44:52;;;;;;;;;;;19.70;57.50;;;14.00;80.81;95191.63;4971007;28;20008;-49
2023/05/16 08:47:20;;;;;;;;;;;19.70;57.50;;;14.14;82.48;95193.53;4970767;28;20005;-50
2023/05/16 08:49:53;;;;;;;;;;;19.80;57.40;;;14.12;79.83;95189.25;4968411;28;19910;-48
2023/05/16 08:52:28;;;;;;;;;;;20.00;58.10;;;14.29;78.42;95195.91;4970730;28;19910;-47
2023/05/16 08:55:06;;;;;;;;;;;20.10;57.40;;;14.43;78.62;95191.38;4972060;28;19914;-50
2023/05/16 08:57:32;;;;;;;;;;;20.40;57.30;;;14.68;78.00;95189.31;4960620;28;19914;-51
2023/05/16 08:59:59;;;;;;;;;;;20.90;56.70;;;15.07;76.28;95185.25;4985420;28;20005;-50
2023/05/16 09:02:29;;;;;;;;;;;21.40;56.30;;;15.29;74.50;95182.59;4956184;28;19933;-49
2023/05/16 09:04:57;;;;;;;;;;;21.80;56.00;;;15.26;73.28;95175.16;4958186;28;19910;-50
2023/05/16 09:07:23;;;;;;;;;;;22.00;55.60;;;15.50;74.48;95172.97;4973816;28;20387;-51
2023/05/16 09:09:49;;;;;;;;;;;22.20;55.40;;;15.61;72.24;95170.84;4956775;28;20415;-51
2023/05/16 09:12:15;;;;;;;;;;;22.50;55.00;;;15.73;72.12;95171.09;4961023;28;19910;-48
2023/05/16 09:14:41;;;;;;;;;;;22.70;54.80;;;15.81;70.95;95177.63;4956041;28;20011;-52
2023/05/16 09:17:08;;;;;;;;;;;22.80;54.60;;;15.88;71.60;95171.81;4963866;28;19913;-49
2023/05/16 09:19:44;;;;;;;;;;;22.80;54.60;;;15.81;70.46;95169.56;4956109;28;19917;-47
2023/05/16 09:22:12;;;;;;;;;;;22.80;54.60;;;15.63;69.85;95176.69;4958317;28;20008;-51
2023/05/16 09:24:39;;;;;;;;;;;22.40;54.40;;;15.34;75.98;95182.47;4965213;28;19917;-51
2023/05/16 09:27:14;;;;;;;;;;;22.10;54.60;;;15.19;78.33;95174.78;4958977;28;19918;-52
2023/05/16 09:29:41;;;;;;;;;;;21.60;54.80;;;14.85;80.27;95181.41;4980752;28;20221;-50
2023/05/16 09:32:14;;;;;;;;;;;21.20;55.10;;;14.57;82.29;95186.00;4956641;28;20361;-52
2023/05/16 09:34:48;;;;;;;;;;;20.70;55.30;;;13.93;83.97;95177.84;4971488;28;19945;-50
2023/05/16 09:37:23;;;;;;;;;;;20.10;55.60;;;13.51;88.98;95178.84;4967545;28;20032;-51
2023/05/16 09:39:53;;;;;;;;;;;19.50;55.90;;;13.26;90.53;95180.03;4956587;28;20463;-51
2023/05/16 09:42:21;;;;;;;;;;;19.00;56.40;;;13.11;91.29;95176.44;4965910;28;19935;-48
2023/05/16 09:44:53;;;;;;;;;;;18.60;56.80;;;12.91;89.33;95180.22;4956687;28;19914;-51
2023/05/16 09:47:21;;;;;;;;;;;18.20;57.20;;;12.64;90.61;95180.03;4958192;28;19946;-48
2023/05/16 09:49:56;;;;;;;;;;;17.90;57.50;;;12.38;91.93;95177.69;4963059;28;19913;-50
2023/05/16 09:52:26;;;;;;;;;;;17.60;57.70;;;12.15;94.65;95181.16;4981935;28;20001;-52
2023/05/16 09:54:53;;;;;;;;;;;17.30;57.90;;;11.95;95.21;95180.28;4956246;28;19976;-52
2023/05/16 09:57:25;;;;;;;;;;;17.10;58.20;;;11.90;96.49;95180.31;4980504;28;19910;-52
2023/05/16 09:59:51;;;;;;;;;;;16.90;58.40;;;11.81;96.47;95182.00;4965329;28;20369;-50
2023/05/16 10:02:18;;;;;;;;;;;16.70;58.70;;;11.79;97.62;95179.63;4955466;28;19913;-47
2023/05/16 10:04:45;;;;;;;;;;;16.60;59.00;;;11.76;98.66;95176.72;4970667;28;20265;-48
2023/05/16 10:07:12;;;;;;;;;;;16.50;59.20;;;11.73;100.00;95180.75;4973618;28;20270;-49
2023/05/16 10:09:39;;;;;;;;;;;16.40;59.40;;;11.69;100.00;95192.25;4974891;28;20423;-50
2023/05/16 10:12:10;;;;;;;;;;;16.30;59.60;;;11.67;100.00;95181.06;4972645;28;19964;-50
2023/05/16 10:14:39;;;;;;;;;;;16.30;59.90;;;11.63;100.00;95175.50;4975364;28;20327;-52
2023/05/16 10:17:13;;;;;;;;;;;16.20;60.00;;;11.60;100.00;95172.59;4974169;28;19911;-50
2023/05/16 10:19:40;;;;;;;;;;;16.20;60.30;;;11.53;100.00;95179.06;4975388;28;19910;-49
2023/05/16 10:22:09;;;;;;;;;;;16.10;60.50;;;11.29;100.00;95191.50;4973474;28;19955;-51
2023/05/16 10:24:47;;;;;;;;;;;16.00;60.70;;;11.25;100.00;95188.63;4964990;28;20400;-51
2023/05/16 10:27:15;;;;;;;;;;;15.90;60.80;;;11.27;100.00;95185.66;4955561;28;19989;-49
2023/05/16 10:29:42;;;;;;;;;;;15.90;61.20;;;11.28;100.00;95181.91;4958732;28;19914;-50
2023/05/16 10:32:09;;;;;;;;;;;15.90;61.40;;;11.33;100.00;95189.88;4955460;28;19917;-48
2023/05/16 10:34:35;;;;;;;;;;;15.90;61.60;;;11.37;100.00;95185.56;4981565;28;19956;-52
2023/05/16 10:37:02;;;;;;;;;;;15.90;61.80;;;11.36;100.00;95189.31;4955740;28;20010;-48
2023/05/16 10:39:31;;;;;;;;;;;15.90;61.90;;;11.37;100.00;95190.09;4980311;28;20333;-48
2023/05/16 10:41:58;;;;;;;;;;;16.00;62.00;;;11.40;100.00;95187.69;4983614;28;20305;-50
2023/05/16 10:44:25;;;;;;;;;;;16.10;62.10;;;11.35;100.00;95190.41;4955301;28;19910;-49
2023/05/16 10:46:51;;;;;;;;;;;16.10;62.20;;;11.31;100.00;95187.50;4955894;28;19910;-50
2023/05/16 10:49:25;;;;;;;;;;;16.10;62.20;;;11.35;100.00;95185.84;4955205;28;19921;-52
2023/05/16 10:52:10;;;;;;;;;;;16.10;62.30;;;11.44;100.00;95172.72;4954434;28;19910;-49
2023/05/16 10:54:50;;;;;;;;;;;16.10;62.30;;;11.48;100.00;95179.09;4954802;28;20210;-48
2023/05/16 10:57:22;;;;;;;;;;;16.10;62.40;;;11.49;100.00;95180.66;4977098;28;19997;-48
2023/05/16 10:59:51;;;;;;;;;;;16.20;62.60;;;11.46;100.00;95175.09;4972369;28;20000;-50
2023/05/16 11:02:33;;;;;;;;;;;16.10;62.70;;;11.50;100.00;95176.94;4953923;28;20301;-48
2023/05/16 11:05:01;;;;;;;;;;;16.10;62.80;;;11.52;100.00;95184.66;4963291;28;20295;-49
2023/05/16 11:07:37;;;;;;;;;;;16.10;63.00;;;11.48;100.00;95196.97;4959680;28;19913;-50
2023/05/16 11:10:15;;;;;;;;;;;16.10;63.10;;;11.39;100.00;95187.97;4973436;28;20422;-49
2023/05/16 11:12:49;;;;;;;;;;;16.10;63.30;;;11.33;100.00;95204.00;4968591;28;20445;-52
2023/05/16 11:15:27;;;;;;;;;;;16.00;64.10;;;11.31;100.00;95208.00;4959383;28;19914;-52
2023/05/16 11:18:14;;;;;;;;;;;15.90;63.40;;;11.28;100.00;95205.91;4961119;28;20348;-52